sensor_id;sensor_type;location;lat;lon;timestamp;temperature;humidity
17956;DHT22;27666;51.498;11.966;2022-12-29T00:00:44;9.60;99.90
17956;DHT22;27666;51.498;11.966;2022-12-29T00:03:32;9.70;99.90
17956;DHT22;27666;51.498;11.966;2022-12-29T00:06:19;9.70;99.90
17956;DHT22;27666;51.498;11.966;2022-12-29T00:09:05;9.60;99.90
17956;DHT22;27666;51.498;11.966;2022-12-29T00:11:52;9.70;99.90
17956;DHT22;27666;51.498;11.966;2022-12-29T00:14:38;9.70;99.90
17956;DHT22;27666;51.498;11.966;2022-12-29T00:17:42;9.70;99.90
17956;DHT22;27666;51.498;11.966;2022-12-29T00:20:33;9.80;99.90
17956;DHT22;27666;51.498;11.966;2022-12-29T00:23:37;9.70;99.90
17956;DHT22;27666;51.498;11.966;2022-12-29T00:26:41;9.80;99.90
17956;DHT22;27666;51.498;11.966;2022-12-29T00:29:44;9.80;99.90
17956;DHT22;27666;51.498;11.966;2022-12-29T00:32:48;9.80;99.90
17956;DHT22;27666;51.498;11.966;2022-12-29T00:35:56;9.80;99.90
17956;DHT22;27666;51.498;11.966;2022-12-29T00:38:47;9.80;99.90
17956;DHT22;27666;51.498;11.966;2022-12-29T00:41:52;9.80;99.90
17956;DHT22;27666;51.498;11.966;2022-12-29T00:44:56;9.80;99.90
17956;DHT22;27666;51.498;11.966;2022-12-29T00:47:42;9.80;99.90
17956;DHT22;27666;51.498;11.966;2022-12-29T00:50:29;9.80;99.90
17956;DHT22;27666;51.498;11.966;2022-12-29T00:53:16;9.80;99.90
17956;DHT22;27666;51.498;11.966;2022-12-29T00:56:02;9.80;99.90
17956;DHT22;27666;51.498;11.966;2022-12-29T00:58:49;9.80;99.90
17956;DHT22;27666;51.498;11.966;2022-12-29T01:01:36;9.80;99.90
17956;DHT22;27666;51.498;11.966;2022-12-29T01:04:25;9.70;99.90
17956;DHT22;27666;51.498;11.966;2022-12-29T01:07:11;9.70;99.90
17956;DHT22;27666;51.498;11.966;2022-12-29T01:09:59;9.60;99.90
17956;DHT22;27666;51.498;11.966;2022-12-29T01:12:57;9.60;99.90
17956;DHT22;27666;51.498;11.966;2022-12-29T01:15:49;9.60;99.90
17956;DHT22;27666;51.498;11.966;2022-12-29T01:18:35;9.50;99.90
17956;DHT22;27666;51.498;11.966;2022-12-29T01:21:22;9.50;99.90
17956;DHT22;27666;51.498;11.966;2022-12-29T01:24:08;9.50;99.90
17956;DHT22;27666;51.498;11.966;2022-12-29T01:26:56;9.40;99.90
17956;DHT22;27666;51.498;11.966;2022-12-29T01:29:43;9.50;99.90
17956;DHT22;27666;51.498;11.966;2022-12-29T01:32:29;9.50;99.90
17956;DHT22;27666;51.498;11.966;2022-12-29T01:35:16;9.40;99.90
17956;DHT22;27666;51.498;11.966;2022-12-29T01:38:03;9.40;99.90
17956;DHT22;27666;51.498;11.966;2022-12-29T01:40:49;9.40;99.90
17956;DHT22;27666;51.498;11.966;2022-12-29T01:43:42;9.50;99.90
17956;DHT22;27666;51.498;11.966;2022-12-29T01:46:31;9.50;99.90
17956;DHT22;27666;51.498;11.966;2022-12-29T01:49:22;9.60;99.90
17956;DHT22;27666;51.498;11.966;2022-12-29T01:52:10;9.60;99.90
17956;DHT22;27666;51.498;11.966;2022-12-29T01:54:57;9.70;99.90
17956;DHT22;27666;51.498;11.966;2022-12-29T01:57:46;9.70;99.90
17956;DHT22;27666;51.498;11.966;2022-12-29T02:00:37;9.80;99.90
17956;DHT22;27666;51.498;11.966;2022-12-29T02:03:24;9.80;99.90
17956;DHT22;27666;51.498;11.966;2022-12-29T02:06:18;9.90;99.90
17956;DHT22;27666;51.498;11.966;2022-12-29T02:09:06;9.90;99.90
17956;DHT22;27666;51.498;11.966;2022-12-29T02:11:53;9.90;99.90
17956;DHT22;27666;51.498;11.966;2022-12-29T02:14:40;10.00;99.90
17956;DHT22;27666;51.498;11.966;2022-12-29T02:17:39;10.00;99.90
17956;DHT22;27666;51.498;11.966;2022-12-29T02:20:42;10.00;99.90
17956;DHT22;27666;51.498;11.966;2022-12-29T02:23:54;10.10;99.90
17956;DHT22;27666;51.498;11.966;2022-12-29T02:26:55;10.10;99.90
17956;DHT22;27666;51.498;11.966;2022-12-29T02:30:06;10.20;99.90
17956;DHT22;27666;51.498;11.966;2022-12-29T02:32:58;10.20;99.90
17956;DHT22;27666;51.498;11.966;2022-12-29T02:35:52;10.20;99.90
17956;DHT22;27666;51.498;11.966;2022-12-29T02:38:51;10.20;99.90
17956;DHT22;27666;51.498;11.966;2022-12-29T02:41:44;10.20;99.90
17956;DHT22;27666;51.498;11.966;2022-12-29T02:44:47;10.30;99.90
17956;DHT22;27666;51.498;11.966;2022-12-29T02:47:39;10.30;99.90
17956;DHT22;27666;51.498;11.966;2022-12-29T02:50:32;10.30;99.90
17956;DHT22;27666;51.498;11.966;2022-12-29T02:53:20;10.20;99.90
17956;DHT22;27666;51.498;11.966;2022-12-29T02:56:27;10.20;99.90
17956;DHT22;27666;51.498;11.966;2022-12-29T02:59:12;10.20;99.90
17956;DHT22;27666;51.498;11.966;2022-12-29T03:02:13;10.20;99.90
17956;DHT22;27666;51.498;11.966;2022-12-29T03:05:17;10.30;99.90
17956;DHT22;27666;51.498;11.966;2022-12-29T03:08:13;10.30;99.90
17956;DHT22;27666;51.498;11.966;2022-12-29T03:11:05;10.30;99.90
17956;DHT22;27666;51.498;11.966;2022-12-29T03:14:19;10.30;99.90
17956;DHT22;27666;51.498;11.966;2022-12-29T03:17:34;10.30;99.90
17956;DHT22;27666;51.498;11.966;2022-12-29T03:20:24;10.30;99.90
17956;DHT22;27666;51.498;11.966;2022-12-29T03:23:13;10.30;99.90
17956;DHT22;27666;51.498;11.966;2022-12-29T03:26:03;10.30;99.90
17956;DHT22;27666;51.498;11.966;2022-12-29T03:28:53;10.30;99.90
17956;DHT22;27666;51.498;11.966;2022-12-29T03:31:42;10.40;99.90
17956;DHT22;27666;51.498;11.966;2022-12-29T03:34:31;10.40;99.90
17956;DHT22;27666;51.498;11.966;2022-12-29T03:37:23;10.50;99.90
17956;DHT22;27666;51.498;11.966;2022-12-29T03:40:12;10.50;99.90
17956;DHT22;27666;51.498;11.966;2022-12-29T03:42:59;10.50;99.90
17956;DHT22;27666;51.498;11.966;2022-12-29T03:45:45;10.50;99.90
17956;DHT22;27666;51.498;11.966;2022-12-29T03:48:32;10.50;99.90
17956;DHT22;27666;51.498;11.966;2022-12-29T03:51:18;10.50;99.90
17956;DHT22;27666;51.498;11.966;2022-12-29T03:54:05;10.50;99.90
17956;DHT22;27666;51.498;11.966;2022-12-29T03:56:52;10.60;99.90
17956;DHT22;27666;51.498;11.966;2022-12-29T03:59:39;10.60;99.90
17956;DHT22;27666;51.498;11.966;2022-12-29T04:02:25;10.60;99.90
17956;DHT22;27666;51.498;11.966;2022-12-29T04:05:12;10.70;99.90
17956;DHT22;27666;51.498;11.966;2022-12-29T04:07:58;10.70;99.90
17956;DHT22;27666;51.498;11.966;2022-12-29T04:10:45;10.70;99.90
17956;DHT22;27666;51.498;11.966;2022-12-29T04:13:32;10.70;99.90
17956;DHT22;27666;51.498;11.966;2022-12-29T04:16:18;10.70;99.90
17956;DHT22;27666;51.498;11.966;2022-12-29T04:19:06;10.70;99.90
17956;DHT22;27666;51.498;11.966;2022-12-29T04:21:53;10.70;99.90
17956;DHT22;27666;51.498;11.966;2022-12-29T04:24:39;10.70;99.90
17956;DHT22;27666;51.498;11.966;2022-12-29T04:27:25;10.80;99.90
17956;DHT22;27666;51.498;11.966;2022-12-29T04:30:13;10.70;99.90
17956;DHT22;27666;51.498;11.966;2022-12-29T04:33:02;10.80;99.90
17956;DHT22;27666;51.498;11.966;2022-12-29T04:35:49;10.70;99.90
17956;DHT22;27666;51.498;11.966;2022-12-29T04:38:35;10.80;99.90
17956;DHT22;27666;51.498;11.966;2022-12-29T04:41:22;10.80;99.90
17956;DHT22;27666;51.498;11.966;2022-12-29T04:44:08;10.70;99.90
17956;DHT22;27666;51.498;11.966;2022-12-29T04:46:56;10.70;99.90
17956;DHT22;27666;51.498;11.966;2022-12-29T04:49:42;10.60;99.90
17956;DHT22;27666;51.498;11.966;2022-12-29T04:52:29;10.50;99.90
17956;DHT22;27666;51.498;11.966;2022-12-29T04:55:15;10.40;99.90
17956;DHT22;27666;51.498;11.966;2022-12-29T04:58:02;10.30;99.90
17956;DHT22;27666;51.498;11.966;2022-12-29T05:00:50;10.40;99.90
17956;DHT22;27666;51.498;11.966;2022-12-29T05:03:37;10.30;99.90
17956;DHT22;27666;51.498;11.966;2022-12-29T05:06:24;10.30;99.90
17956;DHT22;27666;51.498;11.966;2022-12-29T05:09:11;10.30;99.90
17956;DHT22;27666;51.498;11.966;2022-12-29T05:11:57;10.20;99.90
17956;DHT22;27666;51.498;11.966;2022-12-29T05:14:43;10.20;99.90
17956;DHT22;27666;51.498;11.966;2022-12-29T05:17:30;10.10;99.90
17956;DHT22;27666;51.498;11.966;2022-12-29T05:20:18;10.20;99.90
17956;DHT22;27666;51.498;11.966;2022-12-29T05:23:04;10.20;99.90
17956;DHT22;27666;51.498;11.966;2022-12-29T05:25:51;10.20;99.90
17956;DHT22;27666;51.498;11.966;2022-12-29T05:28:37;10.30;99.90
17956;DHT22;27666;51.498;11.966;2022-12-29T05:31:23;10.30;99.90
17956;DHT22;27666;51.498;11.966;2022-12-29T05:34:11;10.30;99.90
17956;DHT22;27666;51.498;11.966;2022-12-29T05:37:00;10.30;99.90
17956;DHT22;27666;51.498;11.966;2022-12-29T05:39:47;10.30;99.90
17956;DHT22;27666;51.498;11.966;2022-12-29T05:42:34;10.30;99.90
17956;DHT22;27666;51.498;11.966;2022-12-29T05:45:20;10.30;99.90
17956;DHT22;27666;51.498;11.966;2022-12-29T05:48:06;10.40;99.90
17956;DHT22;27666;51.498;11.966;2022-12-29T05:50:53;10.40;99.90
17956;DHT22;27666;51.498;11.966;2022-12-29T05:53:40;10.40;99.90
17956;DHT22;27666;51.498;11.966;2022-12-29T05:56:27;10.40;99.90
17956;DHT22;27666;51.498;11.966;2022-12-29T05:59:13;10.40;99.90
17956;DHT22;27666;51.498;11.966;2022-12-29T06:02:00;10.30;99.90
17956;DHT22;27666;51.498;11.966;2022-12-29T06:04:46;10.40;99.90
17956;DHT22;27666;51.498;11.966;2022-12-29T06:07:32;10.40;99.90
17956;DHT22;27666;51.498;11.966;2022-12-29T06:10:20;10.40;99.90
17956;DHT22;27666;51.498;11.966;2022-12-29T06:13:06;10.40;99.90
17956;DHT22;27666;51.498;11.966;2022-12-29T06:15:53;10.40;99.90
17956;DHT22;27666;51.498;11.966;2022-12-29T06:18:39;10.40;99.90
17956;DHT22;27666;51.498;11.966;2022-12-29T06:21:26;10.50;99.90
17956;DHT22;27666;51.498;11.966;2022-12-29T06:24:12;10.60;99.90
17956;DHT22;27666;51.498;11.966;2022-12-29T06:27:00;10.60;99.90
17956;DHT22;27666;51.498;11.966;2022-12-29T06:29:46;10.70;99.90
17956;DHT22;27666;51.498;11.966;2022-12-29T06:32:33;10.60;99.90
17956;DHT22;27666;51.498;11.966;2022-12-29T06:35:19;10.70;99.90
17956;DHT22;27666;51.498;11.966;2022-12-29T06:38:07;10.70;99.90
17956;DHT22;27666;51.498;11.966;2022-12-29T06:40:53;10.70;99.90
17956;DHT22;27666;51.498;11.966;2022-12-29T06:43:41;10.70;99.90
17956;DHT22;27666;51.498;11.966;2022-12-29T06:46:28;10.70;99.90
17956;DHT22;27666;51.498;11.966;2022-12-29T06:49:16;10.70;99.90
17956;DHT22;27666;51.498;11.966;2022-12-29T06:52:03;10.80;99.90
17956;DHT22;27666;51.498;11.966;2022-12-29T06:54:57;10.80;99.90
17956;DHT22;27666;51.498;11.966;2022-12-29T06:57:44;10.80;99.90
17956;DHT22;27666;51.498;11.966;2022-12-29T07:00:32;10.80;99.90
17956;DHT22;27666;51.498;11.966;2022-12-29T07:03:19;10.80;99.90
17956;DHT22;27666;51.498;11.966;2022-12-29T07:06:06;10.90;99.90
17956;DHT22;27666;51.498;11.966;2022-12-29T07:08:53;10.90;99.90
17956;DHT22;27666;51.498;11.966;2022-12-29T07:11:40;10.90;99.90
17956;DHT22;27666;51.498;11.966;2022-12-29T07:14:26;10.90;99.90
17956;DHT22;27666;51.498;11.966;2022-12-29T07:17:14;10.90;99.90
17956;DHT22;27666;51.498;11.966;2022-12-29T07:20:00;10.90;99.90
17956;DHT22;27666;51.498;11.966;2022-12-29T07:22:47;10.90;99.90
17956;DHT22;27666;51.498;11.966;2022-12-29T07:25:33;10.90;99.90
17956;DHT22;27666;51.498;11.966;2022-12-29T07:28:21;11.00;99.90
17956;DHT22;27666;51.498;11.966;2022-12-29T07:31:13;11.00;99.90
17956;DHT22;27666;51.498;11.966;2022-12-29T07:34:01;11.10;99.90
17956;DHT22;27666;51.498;11.966;2022-12-29T07:36:48;11.00;99.90
17956;DHT22;27666;51.498;11.966;2022-12-29T07:39:34;11.00;99.90
17956;DHT22;27666;51.498;11.966;2022-12-29T07:42:20;11.00;99.90
17956;DHT22;27666;51.498;11.966;2022-12-29T07:45:08;11.00;99.90
17956;DHT22;27666;51.498;11.966;2022-12-29T07:47:55;11.00;99.90
17956;DHT22;27666;51.498;11.966;2022-12-29T07:50:43;10.90;99.90
17956;DHT22;27666;51.498;11.966;2022-12-29T07:53:30;10.90;99.90
17956;DHT22;27666;51.498;11.966;2022-12-29T07:56:16;10.80;99.90
17956;DHT22;27666;51.498;11.966;2022-12-29T07:59:02;10.80;99.90
17956;DHT22;27666;51.498;11.966;2022-12-29T08:01:49;10.80;99.90
17956;DHT22;27666;51.498;11.966;2022-12-29T08:04:36;10.80;99.90
17956;DHT22;27666;51.498;11.966;2022-12-29T08:07:24;10.80;99.90
17956;DHT22;27666;51.498;11.966;2022-12-29T08:10:11;10.90;99.90
17956;DHT22;27666;51.498;11.966;2022-12-29T08:15:44;11.20;99.90
17956;DHT22;27666;51.498;11.966;2022-12-29T08:18:31;11.40;99.90
17956;DHT22;27666;51.498;11.966;2022-12-29T08:21:17;11.60;99.90
17956;DHT22;27666;51.498;11.966;2022-12-29T08:24:05;11.80;99.90
17956;DHT22;27666;51.498;11.966;2022-12-29T08:26:52;12.50;99.90
17956;DHT22;27666;51.498;11.966;2022-12-29T08:29:38;12.90;99.90
17956;DHT22;27666;51.498;11.966;2022-12-29T08:32:24;12.70;99.90
17956;DHT22;27666;51.498;11.966;2022-12-29T08:35:11;12.40;99.90
17956;DHT22;27666;51.498;11.966;2022-12-29T08:37:58;12.10;99.90
17956;DHT22;27666;51.498;11.966;2022-12-29T08:40:46;11.90;99.90
17956;DHT22;27666;51.498;11.966;2022-12-29T08:43:32;11.90;99.90
17956;DHT22;27666;51.498;11.966;2022-12-29T08:46:18;11.90;99.90
17956;DHT22;27666;51.498;11.966;2022-12-29T08:49:05;11.90;99.90
17956;DHT22;27666;51.498;11.966;2022-12-29T08:51:52;11.90;99.90
17956;DHT22;27666;51.498;11.966;2022-12-29T08:54:38;11.90;99.90
17956;DHT22;27666;51.498;11.966;2022-12-29T08:57:26;11.80;99.90
17956;DHT22;27666;51.498;11.966;2022-12-29T09:00:13;11.90;99.90
17956;DHT22;27666;51.498;11.966;2022-12-29T09:03:00;12.10;99.90
17956;DHT22;27666;51.498;11.966;2022-12-29T09:05:48;12.20;99.90
17956;DHT22;27666;51.498;11.966;2022-12-29T09:08:36;12.30;99.90
17956;DHT22;27666;51.498;11.966;2022-12-29T09:11:23;12.50;99.90
17956;DHT22;27666;51.498;11.966;2022-12-29T09:14:12;12.60;99.90
17956;DHT22;27666;51.498;11.966;2022-12-29T09:16:58;12.50;99.90
17956;DHT22;27666;51.498;11.966;2022-12-29T09:20:03;12.60;99.90
17956;DHT22;27666;51.498;11.966;2022-12-29T09:22:50;12.60;99.90
17956;DHT22;27666;51.498;11.966;2022-12-29T09:25:36;12.80;99.90
17956;DHT22;27666;51.498;11.966;2022-12-29T09:28:23;13.00;99.90
17956;DHT22;27666;51.498;11.966;2022-12-29T09:31:10;13.10;99.90
17956;DHT22;27666;51.498;11.966;2022-12-29T09:33:57;13.30;99.90
17956;DHT22;27666;51.498;11.966;2022-12-29T09:36:43;13.30;99.90
17956;DHT22;27666;51.498;11.966;2022-12-29T09:39:30;13.20;99.90
17956;DHT22;27666;51.498;11.966;2022-12-29T09:42:21;13.30;99.90
17956;DHT22;27666;51.498;11.966;2022-12-29T09:45:14;13.30;99.90
17956;DHT22;27666;51.498;11.966;2022-12-29T09:48:05;13.60;99.90
17956;DHT22;27666;51.498;11.966;2022-12-29T09:50:57;13.80;99.90
17956;DHT22;27666;51.498;11.966;2022-12-29T09:53:50;13.90;99.90
17956;DHT22;27666;51.498;11.966;2022-12-29T09:56:38;13.90;99.90
17956;DHT22;27666;51.498;11.966;2022-12-29T09:59:29;13.70;99.90
17956;DHT22;27666;51.498;11.966;2022-12-29T10:02:27;13.60;99.90
17956;DHT22;27666;51.498;11.966;2022-12-29T10:05:29;13.40;99.90
17956;DHT22;27666;51.498;11.966;2022-12-29T10:08:27;13.30;99.90
17956;DHT22;27666;51.498;11.966;2022-12-29T10:11:29;13.40;99.90
17956;DHT22;27666;51.498;11.966;2022-12-29T10:14:33;13.40;99.90
17956;DHT22;27666;51.498;11.966;2022-12-29T10:17:29;13.40;99.90
17956;DHT22;27666;51.498;11.966;2022-12-29T10:20:28;13.40;99.90
17956;DHT22;27666;51.498;11.966;2022-12-29T10:23:26;13.60;99.90
17956;DHT22;27666;51.498;11.966;2022-12-29T10:26:16;13.60;99.90
17956;DHT22;27666;51.498;11.966;2022-12-29T10:29:04;13.50;99.90
17956;DHT22;27666;51.498;11.966;2022-12-29T10:31:56;13.50;99.90
17956;DHT22;27666;51.498;11.966;2022-12-29T10:34:48;13.50;99.90
17956;DHT22;27666;51.498;11.966;2022-12-29T10:37:41;13.50;99.90
17956;DHT22;27666;51.498;11.966;2022-12-29T10:40:33;13.40;99.90
17956;DHT22;27666;51.498;11.966;2022-12-29T10:43:25;13.40;99.90
17956;DHT22;27666;51.498;11.966;2022-12-29T10:46:14;13.30;99.90
17956;DHT22;27666;51.498;11.966;2022-12-29T10:49:02;13.30;99.90
17956;DHT22;27666;51.498;11.966;2022-12-29T10:51:50;13.30;99.90
17956;DHT22;27666;51.498;11.966;2022-12-29T10:54:45;13.30;99.90
17956;DHT22;27666;51.498;11.966;2022-12-29T10:57:34;13.30;99.90
17956;DHT22;27666;51.498;11.966;2022-12-29T11:00:23;13.30;99.90
17956;DHT22;27666;51.498;11.966;2022-12-29T11:03:40;13.20;99.90
17956;DHT22;27666;51.498;11.966;2022-12-29T11:06:30;13.20;99.90
17956;DHT22;27666;51.498;11.966;2022-12-29T11:09:23;13.20;99.90
17956;DHT22;27666;51.498;11.966;2022-12-29T11:12:30;13.20;99.90
17956;DHT22;27666;51.498;11.966;2022-12-29T11:15:18;13.20;99.90
17956;DHT22;27666;51.498;11.966;2022-12-29T11:18:04;13.20;99.90
17956;DHT22;27666;51.498;11.966;2022-12-29T11:20:53;13.30;99.90
17956;DHT22;27666;51.498;11.966;2022-12-29T11:23:41;13.40;99.90
17956;DHT22;27666;51.498;11.966;2022-12-29T11:26:28;13.50;99.90
17956;DHT22;27666;51.498;11.966;2022-12-29T11:29:27;13.60;99.90
17956;DHT22;27666;51.498;11.966;2022-12-29T11:32:18;13.60;99.90
17956;DHT22;27666;51.498;11.966;2022-12-29T11:35:30;13.60;99.90
17956;DHT22;27666;51.498;11.966;2022-12-29T11:38:20;13.60;99.90
17956;DHT22;27666;51.498;11.966;2022-12-29T11:41:11;13.70;99.90
17956;DHT22;27666;51.498;11.966;2022-12-29T11:44:01;13.60;99.90
17956;DHT22;27666;51.498;11.966;2022-12-29T11:46:51;13.70;99.90
17956;DHT22;27666;51.498;11.966;2022-12-29T11:49:38;13.70;99.90
17956;DHT22;27666;51.498;11.966;2022-12-29T11:52:27;13.60;99.90
17956;DHT22;27666;51.498;11.966;2022-12-29T11:55:19;13.60;99.90
17956;DHT22;27666;51.498;11.966;2022-12-29T11:58:14;13.60;99.90
17956;DHT22;27666;51.498;11.966;2022-12-29T12:01:04;13.70;99.90
17956;DHT22;27666;51.498;11.966;2022-12-29T12:04:01;13.60;99.90
17956;DHT22;27666;51.498;11.966;2022-12-29T12:06:57;13.70;99.90
17956;DHT22;27666;51.498;11.966;2022-12-29T12:09:48;13.70;99.90
17956;DHT22;27666;51.498;11.966;2022-12-29T12:12:41;13.70;99.90
17956;DHT22;27666;51.498;11.966;2022-12-29T12:15:34;13.60;99.90
17956;DHT22;27666;51.498;11.966;2022-12-29T12:18:37;13.60;99.90
17956;DHT22;27666;51.498;11.966;2022-12-29T12:21:30;13.60;99.90
17956;DHT22;27666;51.498;11.966;2022-12-29T12:24:36;13.50;99.90
17956;DHT22;27666;51.498;11.966;2022-12-29T12:27:26;13.50;99.90
17956;DHT22;27666;51.498;11.966;2022-12-29T12:30:17;13.50;99.90
17956;DHT22;27666;51.498;11.966;2022-12-29T12:33:09;13.40;99.90
17956;DHT22;27666;51.498;11.966;2022-12-29T12:36:18;13.30;99.90
17956;DHT22;27666;51.498;11.966;2022-12-29T12:39:15;13.30;99.90
17956;DHT22;27666;51.498;11.966;2022-12-29T12:42:14;13.30;99.90
17956;DHT22;27666;51.498;11.966;2022-12-29T12:45:29;13.20;99.90
17956;DHT22;27666;51.498;11.966;2022-12-29T12:48:42;13.20;99.90
17956;DHT22;27666;51.498;11.966;2022-12-29T12:51:39;13.20;99.90
17956;DHT22;27666;51.498;11.966;2022-12-29T12:54:42;13.20;99.90
17956;DHT22;27666;51.498;11.966;2022-12-29T12:57:45;13.10;99.90
17956;DHT22;27666;51.498;11.966;2022-12-29T13:00:42;13.10;99.90
17956;DHT22;27666;51.498;11.966;2022-12-29T13:03:44;13.00;99.90
17956;DHT22;27666;51.498;11.966;2022-12-29T13:06:39;13.10;99.90
17956;DHT22;27666;51.498;11.966;2022-12-29T13:09:44;13.10;99.90
17956;DHT22;27666;51.498;11.966;2022-12-29T13:12:41;13.20;99.90
17956;DHT22;27666;51.498;11.966;2022-12-29T13:15:42;13.10;99.90
17956;DHT22;27666;51.498;11.966;2022-12-29T13:18:41;13.20;99.90
17956;DHT22;27666;51.498;11.966;2022-12-29T13:21:46;13.10;99.90
17956;DHT22;27666;51.498;11.966;2022-12-29T13:24:58;13.10;99.90
17956;DHT22;27666;51.498;11.966;2022-12-29T13:27:54;13.10;99.90
17956;DHT22;27666;51.498;11.966;2022-12-29T13:30:47;13.10;99.90
17956;DHT22;27666;51.498;11.966;2022-12-29T13:33:42;13.10;99.90
17956;DHT22;27666;51.498;11.966;2022-12-29T13:36:37;13.20;99.90
17956;DHT22;27666;51.498;11.966;2022-12-29T13:39:33;13.20;99.90
17956;DHT22;27666;51.498;11.966;2022-12-29T13:42:22;13.10;99.90
17956;DHT22;27666;51.498;11.966;2022-12-29T13:45:13;13.10;99.90
17956;DHT22;27666;51.498;11.966;2022-12-29T13:48:04;13.00;99.90
17956;DHT22;27666;51.498;11.966;2022-12-29T13:50:54;12.90;99.90
17956;DHT22;27666;51.498;11.966;2022-12-29T13:53:58;12.90;99.90
17956;DHT22;27666;51.498;11.966;2022-12-29T13:56:51;12.90;99.90
17956;DHT22;27666;51.498;11.966;2022-12-29T13:59:48;12.90;99.90
17956;DHT22;27666;51.498;11.966;2022-12-29T14:02:42;12.90;99.90
17956;DHT22;27666;51.498;11.966;2022-12-29T14:05:33;12.80;99.90
17956;DHT22;27666;51.498;11.966;2022-12-29T14:08:19;12.90;99.90
17956;DHT22;27666;51.498;11.966;2022-12-29T14:11:08;12.80;99.90
17956;DHT22;27666;51.498;11.966;2022-12-29T14:13:56;12.80;99.90
17956;DHT22;27666;51.498;11.966;2022-12-29T14:16:44;12.80;99.90
17956;DHT22;27666;51.498;11.966;2022-12-29T14:19:33;12.80;99.90
17956;DHT22;27666;51.498;11.966;2022-12-29T14:22:23;12.80;99.90
17956;DHT22;27666;51.498;11.966;2022-12-29T14:28:41;12.80;99.90
17956;DHT22;27666;51.498;11.966;2022-12-29T14:31:35;12.70;99.90
17956;DHT22;27666;51.498;11.966;2022-12-29T14:34:38;12.70;99.90
17956;DHT22;27666;51.498;11.966;2022-12-29T14:37:27;12.60;99.90
17956;DHT22;27666;51.498;11.966;2022-12-29T14:40:16;12.60;99.90
17956;DHT22;27666;51.498;11.966;2022-12-29T14:43:12;12.50;99.90
17956;DHT22;27666;51.498;11.966;2022-12-29T14:46:01;12.40;99.90
17956;DHT22;27666;51.498;11.966;2022-12-29T14:48:54;12.20;99.90
17956;DHT22;27666;51.498;11.966;2022-12-29T14:51:43;12.20;99.90
17956;DHT22;27666;51.498;11.966;2022-12-29T14:54:46;12.10;99.90
17956;DHT22;27666;51.498;11.966;2022-12-29T14:57:37;12.00;99.90
17956;DHT22;27666;51.498;11.966;2022-12-29T15:00:29;11.90;99.90
17956;DHT22;27666;51.498;11.966;2022-12-29T15:03:19;12.00;99.90
17956;DHT22;27666;51.498;11.966;2022-12-29T15:06:08;11.90;99.90
17956;DHT22;27666;51.498;11.966;2022-12-29T15:09:01;11.80;99.90
17956;DHT22;27666;51.498;11.966;2022-12-29T15:11:53;11.80;99.90
17956;DHT22;27666;51.498;11.966;2022-12-29T15:14:49;11.80;99.90
17956;DHT22;27666;51.498;11.966;2022-12-29T15:17:36;11.70;99.90
17956;DHT22;27666;51.498;11.966;2022-12-29T15:20:26;11.60;99.90
17956;DHT22;27666;51.498;11.966;2022-12-29T15:23:13;11.70;99.90
17956;DHT22;27666;51.498;11.966;2022-12-29T15:26:03;11.70;99.90
17956;DHT22;27666;51.498;11.966;2022-12-29T15:28:51;11.80;99.90
17956;DHT22;27666;51.498;11.966;2022-12-29T15:31:46;11.80;99.90
17956;DHT22;27666;51.498;11.966;2022-12-29T15:34:34;11.80;99.90
17956;DHT22;27666;51.498;11.966;2022-12-29T15:37:23;11.80;99.90
17956;DHT22;27666;51.498;11.966;2022-12-29T15:40:22;11.70;99.90
17956;DHT22;27666;51.498;11.966;2022-12-29T15:43:32;11.70;99.90
17956;DHT22;27666;51.498;11.966;2022-12-29T15:46:27;11.70;99.90
17956;DHT22;27666;51.498;11.966;2022-12-29T15:49:16;11.60;99.90
17956;DHT22;27666;51.498;11.966;2022-12-29T15:52:06;11.50;99.90
17956;DHT22;27666;51.498;11.966;2022-12-29T15:54:54;11.40;99.90
17956;DHT22;27666;51.498;11.966;2022-12-29T15:57:42;11.40;99.90
17956;DHT22;27666;51.498;11.966;2022-12-29T16:00:32;11.30;99.90
17956;DHT22;27666;51.498;11.966;2022-12-29T16:03:20;11.20;99.90
17956;DHT22;27666;51.498;11.966;2022-12-29T16:06:09;11.10;99.90
17956;DHT22;27666;51.498;11.966;2022-12-29T16:08:58;11.10;99.90
17956;DHT22;27666;51.498;11.966;2022-12-29T16:11:46;11.20;99.90
17956;DHT22;27666;51.498;11.966;2022-12-29T16:14:40;11.20;99.90
17956;DHT22;27666;51.498;11.966;2022-12-29T16:17:30;11.20;99.90
17956;DHT22;27666;51.498;11.966;2022-12-29T16:20:20;11.20;99.90
17956;DHT22;27666;51.498;11.966;2022-12-29T16:23:17;11.20;99.90
17956;DHT22;27666;51.498;11.966;2022-12-29T16:26:14;11.00;99.90
17956;DHT22;27666;51.498;11.966;2022-12-29T16:29:05;11.00;99.90
17956;DHT22;27666;51.498;11.966;2022-12-29T16:31:54;11.00;99.90
17956;DHT22;27666;51.498;11.966;2022-12-29T16:34:47;10.80;99.90
17956;DHT22;27666;51.498;11.966;2022-12-29T16:37:34;10.80;99.90
17956;DHT22;27666;51.498;11.966;2022-12-29T16:40:27;10.80;99.90
17956;DHT22;27666;51.498;11.966;2022-12-29T16:43:21;10.70;99.90
17956;DHT22;27666;51.498;11.966;2022-12-29T16:46:27;10.70;99.90
17956;DHT22;27666;51.498;11.966;2022-12-29T16:49:16;10.60;99.90
17956;DHT22;27666;51.498;11.966;2022-12-29T16:52:18;10.60;99.90
17956;DHT22;27666;51.498;11.966;2022-12-29T16:55:14;10.60;99.90
17956;DHT22;27666;51.498;11.966;2022-12-29T16:58:01;10.60;99.90
17956;DHT22;27666;51.498;11.966;2022-12-29T17:00:48;10.60;99.90
17956;DHT22;27666;51.498;11.966;2022-12-29T17:03:41;10.50;99.90
17956;DHT22;27666;51.498;11.966;2022-12-29T17:06:30;10.60;99.90
17956;DHT22;27666;51.498;11.966;2022-12-29T17:09:20;10.50;99.90
17956;DHT22;27666;51.498;11.966;2022-12-29T17:12:09;10.60;99.90
17956;DHT22;27666;51.498;11.966;2022-12-29T17:14:58;10.40;99.90
17956;DHT22;27666;51.498;11.966;2022-12-29T17:17:46;10.40;99.90
17956;DHT22;27666;51.498;11.966;2022-12-29T17:20:34;10.40;99.90
17956;DHT22;27666;51.498;11.966;2022-12-29T17:23:20;10.50;99.90
17956;DHT22;27666;51.498;11.966;2022-12-29T17:26:12;10.40;99.90
17956;DHT22;27666;51.498;11.966;2022-12-29T17:28:59;10.40;99.90
17956;DHT22;27666;51.498;11.966;2022-12-29T17:31:45;10.30;99.90
17956;DHT22;27666;51.498;11.966;2022-12-29T17:34:32;10.30;99.90
17956;DHT22;27666;51.498;11.966;2022-12-29T17:37:33;10.20;99.90
17956;DHT22;27666;51.498;11.966;2022-12-29T17:40:23;10.20;99.90
17956;DHT22;27666;51.498;11.966;2022-12-29T17:43:13;10.20;99.90
17956;DHT22;27666;51.498;11.966;2022-12-29T17:46:00;10.10;99.90
17956;DHT22;27666;51.498;11.966;2022-12-29T17:48:47;10.10;99.90
17956;DHT22;27666;51.498;11.966;2022-12-29T17:51:38;10.10;99.90